sensor_id;sensor_type;location;lat;lon;timestamp;P1;durP1;ratioP1;P2;durP2;ratioP2
79143;SDS011;68551;47.484;19.092;2023-06-05T00:02:30;3.33;;;2.17;;
79143;SDS011;68551;47.484;19.092;2023-06-05T00:05:35;3.17;;;2.38;;
79143;SDS011;68551;47.484;19.092;2023-06-05T00:08:40;6.43;;;2.20;;
79143;SDS011;68551;47.484;19.092;2023-06-05T00:11:43;3.40;;;2.22;;
79143;SDS011;68551;47.484;19.092;2023-06-05T00:14:45;3.55;;;2.50;;
79143;SDS011;68551;47.484;19.092;2023-06-05T00:17:47;4.32;;;2.35;;
79143;SDS011;68551;47.484;19.092;2023-06-05T00:20:50;3.72;;;2.58;;
79143;SDS011;68551;47.484;19.092;2023-06-05T00:23:52;3.65;;;2.47;;
79143;SDS011;68551;47.484;19.092;2023-06-05T00:26:57;5.00;;;2.17;;
79143;SDS011;68551;47.484;19.092;2023-06-05T00:30:02;6.15;;;2.67;;
79143;SDS011;68551;47.484;19.092;2023-06-05T00:33:05;3.00;;;2.10;;
79143;SDS011;68551;47.484;19.092;2023-06-05T00:36:12;4.40;;;2.80;;
79143;SDS011;68551;47.484;19.092;2023-06-05T00:39:17;4.55;;;2.15;;
79143;SDS011;68551;47.484;19.092;2023-06-05T00:42:22;4.22;;;2.47;;
79143;SDS011;68551;47.484;19.092;2023-06-05T00:45:27;5.03;;;2.40;;
79143;SDS011;68551;47.484;19.092;2023-06-05T00:48:30;3.28;;;2.40;;
79143;SDS011;68551;47.484;19.092;2023-06-05T00:51:42;3.30;;;2.38;;
79143;SDS011;68551;47.484;19.092;2023-06-05T00:54:47;4.53;;;2.72;;
79143;SDS011;68551;47.484;19.092;2023-06-05T00:57:50;5.07;;;3.17;;
79143;SDS011;68551;47.484;19.092;2023-06-05T01:00:53;4.57;;;2.53;;
79143;SDS011;68551;47.484;19.092;2023-06-05T01:04:00;3.38;;;2.05;;
79143;SDS011;68551;47.484;19.092;2023-06-05T01:07:03;3.70;;;2.63;;
79143;SDS011;68551;47.484;19.092;2023-06-05T01:10:09;4.50;;;2.33;;
79143;SDS011;68551;47.484;19.092;2023-06-05T01:13:21;4.43;;;2.42;;
79143;SDS011;68551;47.484;19.092;2023-06-05T01:16:29;2.58;;;1.92;;
79143;SDS011;68551;47.484;19.092;2023-06-05T01:19:34;3.95;;;2.70;;
79143;SDS011;68551;47.484;19.092;2023-06-05T01:22:38;4.30;;;2.65;;
79143;SDS011;68551;47.484;19.092;2023-06-05T01:25:40;3.10;;;2.30;;
79143;SDS011;68551;47.484;19.092;2023-06-05T01:28:44;3.60;;;2.15;;
79143;SDS011;68551;47.484;19.092;2023-06-05T01:31:49;3.90;;;2.88;;
79143;SDS011;68551;47.484;19.092;2023-06-05T01:35:02;3.20;;;2.28;;
79143;SDS011;68551;47.484;19.092;2023-06-05T01:38:12;5.20;;;2.10;;
79143;SDS011;68551;47.484;19.092;2023-06-05T01:41:17;2.80;;;2.30;;
79143;SDS011;68551;47.484;19.092;2023-06-05T01:44:25;4.15;;;2.40;;
79143;SDS011;68551;47.484;19.092;2023-06-05T01:47:28;3.40;;;2.33;;
79143;SDS011;68551;47.484;19.092;2023-06-05T01:50:33;3.30;;;2.10;;
79143;SDS011;68551;47.484;19.092;2023-06-05T01:53:38;5.00;;;2.30;;
79143;SDS011;68551;47.484;19.092;2023-06-05T01:56:40;5.82;;;2.45;;
79143;SDS011;68551;47.484;19.092;2023-06-05T01:59:47;3.70;;;2.72;;
79143;SDS011;68551;47.484;19.092;2023-06-05T02:02:56;4.18;;;2.35;;
79143;SDS011;68551;47.484;19.092;2023-06-05T02:05:59;3.78;;;2.47;;
79143;SDS011;68551;47.484;19.092;2023-06-05T02:09:01;4.50;;;2.60;;
79143;SDS011;68551;47.484;19.092;2023-06-05T02:12:08;3.83;;;2.60;;
79143;SDS011;68551;47.484;19.092;2023-06-05T02:15:11;2.70;;;2.10;;
79143;SDS011;68551;47.484;19.092;2023-06-05T02:18:17;3.90;;;2.72;;
79143;SDS011;68551;47.484;19.092;2023-06-05T02:21:23;4.10;;;2.08;;
79143;SDS011;68551;47.484;19.092;2023-06-05T02:24:25;3.78;;;2.38;;
79143;SDS011;68551;47.484;19.092;2023-06-05T02:27:28;3.90;;;2.20;;
79143;SDS011;68551;47.484;19.092;2023-06-05T02:30:31;3.30;;;2.20;;
79143;SDS011;68551;47.484;19.092;2023-06-05T02:33:35;4.50;;;2.70;;
79143;SDS011;68551;47.484;19.092;2023-06-05T02:36:40;3.78;;;2.70;;
79143;SDS011;68551;47.484;19.092;2023-06-05T02:39:44;4.10;;;2.60;;
79143;SDS011;68551;47.484;19.092;2023-06-05T02:42:47;3.45;;;2.30;;
79143;SDS011;68551;47.484;19.092;2023-06-05T02:45:52;2.88;;;2.40;;
79143;SDS011;68551;47.484;19.092;2023-06-05T02:48:57;2.58;;;2.22;;
79143;SDS011;68551;47.484;19.092;2023-06-05T02:52:00;4.35;;;2.88;;
79143;SDS011;68551;47.484;19.092;2023-06-05T02:55:03;3.50;;;2.47;;
79143;SDS011;68551;47.484;19.092;2023-06-05T02:58:07;3.72;;;2.40;;
79143;SDS011;68551;47.484;19.092;2023-06-05T03:01:22;3.78;;;2.30;;
79143;SDS011;68551;47.484;19.092;2023-06-05T03:04:28;5.15;;;2.42;;
79143;SDS011;68551;47.484;19.092;2023-06-05T03:07:31;3.65;;;2.67;;
79143;SDS011;68551;47.484;19.092;2023-06-05T03:10:41;5.00;;;2.70;;
79143;SDS011;68551;47.484;19.092;2023-06-05T03:13:44;3.92;;;2.50;;
79143;SDS011;68551;47.484;19.092;2023-06-05T03:16:50;3.97;;;2.30;;
79143;SDS011;68551;47.484;19.092;2023-06-05T03:19:57;4.25;;;2.80;;
79143;SDS011;68551;47.484;19.092;2023-06-05T03:23:04;4.30;;;2.50;;
79143;SDS011;68551;47.484;19.092;2023-06-05T03:26:11;4.10;;;3.28;;
79143;SDS011;68551;47.484;19.092;2023-06-05T03:29:13;3.80;;;2.78;;
79143;SDS011;68551;47.484;19.092;2023-06-05T03:32:17;4.15;;;2.60;;
79143;SDS011;68551;47.484;19.092;2023-06-05T03:35:23;4.72;;;2.63;;
79143;SDS011;68551;47.484;19.092;2023-06-05T03:38:29;6.18;;;2.58;;
79143;SDS011;68551;47.484;19.092;2023-06-05T03:41:31;4.50;;;2.63;;
79143;SDS011;68551;47.484;19.092;2023-06-05T03:44:39;4.25;;;2.80;;
79143;SDS011;68551;47.484;19.092;2023-06-05T03:47:42;5.00;;;3.20;;
79143;SDS011;68551;47.484;19.092;2023-06-05T03:50:52;4.32;;;2.85;;
79143;SDS011;68551;47.484;19.092;2023-06-05T03:54:05;5.90;;;3.13;;
79143;SDS011;68551;47.484;19.092;2023-06-05T03:57:12;5.45;;;2.90;;
79143;SDS011;68551;47.484;19.092;2023-06-05T04:00:17;4.05;;;2.70;;
79143;SDS011;68551;47.484;19.092;2023-06-05T04:03:30;4.65;;;3.05;;
79143;SDS011;68551;47.484;19.092;2023-06-05T04:06:39;6.10;;;3.00;;
79143;SDS011;68551;47.484;19.092;2023-06-05T04:09:46;4.55;;;2.70;;
79143;SDS011;68551;47.484;19.092;2023-06-05T04:12:54;3.50;;;2.55;;
79143;SDS011;68551;47.484;19.092;2023-06-05T04:15:57;4.40;;;2.60;;
79143;SDS011;68551;47.484;19.092;2023-06-05T04:19:02;5.00;;;2.80;;
79143;SDS011;68551;47.484;19.092;2023-06-05T04:22:04;4.93;;;2.83;;
79143;SDS011;68551;47.484;19.092;2023-06-05T04:25:09;4.70;;;3.30;;
79143;SDS011;68551;47.484;19.092;2023-06-05T04:28:17;5.63;;;3.25;;
79143;SDS011;68551;47.484;19.092;2023-06-05T04:31:20;4.38;;;2.67;;
79143;SDS011;68551;47.484;19.092;2023-06-05T04:34:28;4.60;;;2.90;;
79143;SDS011;68551;47.484;19.092;2023-06-05T04:37:34;3.65;;;2.83;;
79143;SDS011;68551;47.484;19.092;2023-06-05T04:40:43;4.82;;;2.65;;
79143;SDS011;68551;47.484;19.092;2023-06-05T04:43:47;4.30;;;3.20;;
79143;SDS011;68551;47.484;19.092;2023-06-05T04:46:51;5.28;;;2.78;;
79143;SDS011;68551;47.484;19.092;2023-06-05T04:49:54;5.78;;;3.10;;
79143;SDS011;68551;47.484;19.092;2023-06-05T04:53:05;5.55;;;3.15;;
79143;SDS011;68551;47.484;19.092;2023-06-05T04:56:08;5.40;;;2.65;;
79143;SDS011;68551;47.484;19.092;2023-06-05T04:59:11;5.63;;;3.13;;
79143;SDS011;68551;47.484;19.092;2023-06-05T05:02:13;4.38;;;3.47;;
79143;SDS011;68551;47.484;19.092;2023-06-05T05:05:18;4.05;;;3.33;;
79143;SDS011;68551;47.484;19.092;2023-06-05T05:08:26;4.47;;;3.00;;
79143;SDS011;68551;47.484;19.092;2023-06-05T05:11:32;5.95;;;3.40;;
79143;SDS011;68551;47.484;19.092;2023-06-05T05:14:37;5.05;;;3.08;;
79143;SDS011;68551;47.484;19.092;2023-06-05T05:17:43;4.43;;;3.33;;
79143;SDS011;68551;47.484;19.092;2023-06-05T05:20:46;5.50;;;2.83;;
79143;SDS011;68551;47.484;19.092;2023-06-05T05:23:48;5.05;;;3.22;;
79143;SDS011;68551;47.484;19.092;2023-06-05T05:26:56;3.97;;;2.78;;
79143;SDS011;68551;47.484;19.092;2023-06-05T05:29:58;4.32;;;3.10;;
79143;SDS011;68551;47.484;19.092;2023-06-05T05:33:01;5.45;;;2.97;;
79143;SDS011;68551;47.484;19.092;2023-06-05T05:39:08;5.03;;;3.10;;
79143;SDS011;68551;47.484;19.092;2023-06-05T05:42:14;7.78;;;4.22;;
79143;SDS011;68551;47.484;19.092;2023-06-05T05:45:17;4.22;;;3.58;;
79143;SDS011;68551;47.484;19.092;2023-06-05T05:48:20;4.53;;;2.95;;
79143;SDS011;68551;47.484;19.092;2023-06-05T05:51:27;7.50;;;3.10;;
79143;SDS011;68551;47.484;19.092;2023-06-05T05:54:30;5.68;;;3.30;;
79143;SDS011;68551;47.484;19.092;2023-06-05T05:57:37;6.97;;;3.55;;
79143;SDS011;68551;47.484;19.092;2023-06-05T06:00:39;5.65;;;3.22;;
79143;SDS011;68551;47.484;19.092;2023-06-05T06:03:44;6.47;;;3.55;;
79143;SDS011;68551;47.484;19.092;2023-06-05T06:06:48;5.18;;;3.10;;
79143;SDS011;68551;47.484;19.092;2023-06-05T06:09:54;5.53;;;2.72;;
79143;SDS011;68551;47.484;19.092;2023-06-05T06:12:59;6.13;;;3.13;;
79143;SDS011;68551;47.484;19.092;2023-06-05T06:16:02;7.93;;;2.92;;
79143;SDS011;68551;47.484;19.092;2023-06-05T06:19:05;4.50;;;3.30;;
79143;SDS011;68551;47.484;19.092;2023-06-05T06:22:07;6.25;;;3.33;;
79143;SDS011;68551;47.484;19.092;2023-06-05T06:25:15;4.75;;;3.30;;
79143;SDS011;68551;47.484;19.092;2023-06-05T06:28:19;5.25;;;2.90;;
79143;SDS011;68551;47.484;19.092;2023-06-05T06:31:22;4.22;;;3.05;;
79143;SDS011;68551;47.484;19.092;2023-06-05T06:34:24;5.30;;;3.13;;
79143;SDS011;68551;47.484;19.092;2023-06-05T06:37:27;6.65;;;3.03;;
79143;SDS011;68551;47.484;19.092;2023-06-05T06:40:31;5.63;;;2.83;;
79143;SDS011;68551;47.484;19.092;2023-06-05T06:43:34;4.65;;;3.40;;
79143;SDS011;68551;47.484;19.092;2023-06-05T06:46:38;5.88;;;3.72;;
79143;SDS011;68551;47.484;19.092;2023-06-05T06:49:41;4.80;;;3.17;;
79143;SDS011;68551;47.484;19.092;2023-06-05T06:52:46;4.78;;;3.20;;
79143;SDS011;68551;47.484;19.092;2023-06-05T06:55:50;7.57;;;3.40;;
79143;SDS011;68551;47.484;19.092;2023-06-05T06:58:55;4.10;;;3.00;;
79143;SDS011;68551;47.484;19.092;2023-06-05T07:02:13;4.32;;;3.10;;
79143;SDS011;68551;47.484;19.092;2023-06-05T07:05:17;4.57;;;3.20;;
79143;SDS011;68551;47.484;19.092;2023-06-05T07:08:22;4.90;;;3.05;;
79143;SDS011;68551;47.484;19.092;2023-06-05T07:11:26;6.20;;;2.92;;
79143;SDS011;68551;47.484;19.092;2023-06-05T07:14:29;4.63;;;3.33;;
79143;SDS011;68551;47.484;19.092;2023-06-05T07:17:32;4.03;;;3.13;;
79143;SDS011;68551;47.484;19.092;2023-06-05T07:20:37;4.18;;;3.10;;
79143;SDS011;68551;47.484;19.092;2023-06-05T07:23:39;4.13;;;2.70;;
79143;SDS011;68551;47.484;19.092;2023-06-05T07:26:42;5.13;;;3.05;;
79143;SDS011;68551;47.484;19.092;2023-06-05T07:29:47;8.32;;;3.25;;
79143;SDS011;68551;47.484;19.092;2023-06-05T07:35:58;4.03;;;3.03;;
79143;SDS011;68551;47.484;19.092;2023-06-05T07:39:01;6.60;;;3.08;;
79143;SDS011;68551;47.484;19.092;2023-06-05T07:42:04;8.15;;;3.40;;
79143;SDS011;68551;47.484;19.092;2023-06-05T07:45:07;5.28;;;3.05;;
79143;SDS011;68551;47.484;19.092;2023-06-05T07:48:13;3.80;;;2.65;;
79143;SDS011;68551;47.484;19.092;2023-06-05T07:51:15;3.80;;;2.80;;
79143;SDS011;68551;47.484;19.092;2023-06-05T07:54:24;5.72;;;3.20;;
79143;SDS011;68551;47.484;19.092;2023-06-05T07:57:29;3.83;;;2.60;;
79143;SDS011;68551;47.484;19.092;2023-06-05T08:00:31;7.95;;;2.90;;
79143;SDS011;68551;47.484;19.092;2023-06-05T08:03:36;6.78;;;3.25;;
79143;SDS011;68551;47.484;19.092;2023-06-05T08:06:46;5.95;;;3.22;;
79143;SDS011;68551;47.484;19.092;2023-06-05T08:09:49;4.80;;;3.05;;
79143;SDS011;68551;47.484;19.092;2023-06-05T08:12:51;4.97;;;2.50;;
79143;SDS011;68551;47.484;19.092;2023-06-05T08:15:54;6.45;;;2.95;;
79143;SDS011;68551;47.484;19.092;2023-06-05T08:18:56;7.10;;;3.20;;
79143;SDS011;68551;47.484;19.092;2023-06-05T08:22:01;4.95;;;2.80;;
79143;SDS011;68551;47.484;19.092;2023-06-05T08:25:07;5.00;;;3.28;;
79143;SDS011;68551;47.484;19.092;2023-06-05T08:31:14;6.53;;;2.92;;
79143;SDS011;68551;47.484;19.092;2023-06-05T08:34:19;6.45;;;3.45;;
79143;SDS011;68551;47.484;19.092;2023-06-05T08:37:21;6.82;;;3.50;;
79143;SDS011;68551;47.484;19.092;2023-06-05T08:40:25;7.35;;;3.17;;
79143;SDS011;68551;47.484;19.092;2023-06-05T08:43:30;4.07;;;2.80;;
79143;SDS011;68551;47.484;19.092;2023-06-05T08:46:33;4.55;;;3.03;;
79143;SDS011;68551;47.484;19.092;2023-06-05T08:49:41;4.30;;;2.78;;
79143;SDS011;68551;47.484;19.092;2023-06-05T08:52:48;5.80;;;3.17;;
79143;SDS011;68551;47.484;19.092;2023-06-05T08:55:55;5.82;;;3.60;;
79143;SDS011;68551;47.484;19.092;2023-06-05T08:59:01;6.00;;;3.50;;
79143;SDS011;68551;47.484;19.092;2023-06-05T09:02:05;5.55;;;3.00;;
79143;SDS011;68551;47.484;19.092;2023-06-05T09:05:09;6.57;;;3.20;;
79143;SDS011;68551;47.484;19.092;2023-06-05T09:08:16;3.38;;;2.78;;
79143;SDS011;68551;47.484;19.092;2023-06-05T09:11:29;5.80;;;3.33;;
79143;SDS011;68551;47.484;19.092;2023-06-05T09:14:35;5.28;;;3.28;;
79143;SDS011;68551;47.484;19.092;2023-06-05T09:17:37;6.63;;;2.95;;
79143;SDS011;68551;47.484;19.092;2023-06-05T09:20:43;3.72;;;2.90;;
79143;SDS011;68551;47.484;19.092;2023-06-05T09:23:49;6.20;;;3.00;;
79143;SDS011;68551;47.484;19.092;2023-06-05T09:30:03;3.63;;;3.00;;
79143;SDS011;68551;47.484;19.092;2023-06-05T09:33:09;5.90;;;3.13;;
79143;SDS011;68551;47.484;19.092;2023-06-05T09:36:12;5.60;;;2.97;;
79143;SDS011;68551;47.484;19.092;2023-06-05T09:39:15;6.78;;;3.33;;
79143;SDS011;68551;47.484;19.092;2023-06-05T09:42:32;5.28;;;2.83;;
79143;SDS011;68551;47.484;19.092;2023-06-05T09:45:41;5.22;;;2.78;;
79143;SDS011;68551;47.484;19.092;2023-06-05T09:48:58;5.43;;;3.00;;
79143;SDS011;68551;47.484;19.092;2023-06-05T09:52:03;7.90;;;3.40;;
79143;SDS011;68551;47.484;19.092;2023-06-05T09:55:13;5.25;;;3.30;;
79143;SDS011;68551;47.484;19.092;2023-06-05T09:58:23;3.72;;;2.67;;
79143;SDS011;68551;47.484;19.092;2023-06-05T10:01:28;4.43;;;2.90;;
79143;SDS011;68551;47.484;19.092;2023-06-05T10:04:38;5.47;;;3.15;;
79143;SDS011;68551;47.484;19.092;2023-06-05T10:07:56;4.95;;;2.80;;
79143;SDS011;68551;47.484;19.092;2023-06-05T10:14:03;4.65;;;3.15;;
79143;SDS011;68551;47.484;19.092;2023-06-05T10:17:13;5.75;;;3.22;;
79143;SDS011;68551;47.484;19.092;2023-06-05T10:20:15;4.22;;;2.85;;
79143;SDS011;68551;47.484;19.092;2023-06-05T10:23:20;4.72;;;2.50;;
79143;SDS011;68551;47.484;19.092;2023-06-05T10:37:16;4.55;;;2.50;;
79143;SDS011;68551;47.484;19.092;2023-06-05T10:40:34;3.58;;;2.42;;
79143;SDS011;68551;47.484;19.092;2023-06-05T10:46:54;3.30;;;2.38;;
79143;SDS011;68551;47.484;19.092;2023-06-05T10:54:04;4.10;;;2.65;;
79143;SDS011;68551;47.484;19.092;2023-06-05T11:00:04;5.30;;;2.53;;
79143;SDS011;68551;47.484;19.092;2023-06-05T11:03:13;4.97;;;2.58;;
79143;SDS011;68551;47.484;19.092;2023-06-05T11:06:15;4.07;;;2.70;;
79143;SDS011;68551;47.484;19.092;2023-06-05T11:09:20;3.33;;;2.40;;
79143;SDS011;68551;47.484;19.092;2023-06-05T11:12:25;5.20;;;2.55;;
79143;SDS011;68551;47.484;19.092;2023-06-05T11:18:30;5.03;;;2.20;;
79143;SDS011;68551;47.484;19.092;2023-06-05T11:31:58;5.30;;;2.88;;
79143;SDS011;68551;47.484;19.092;2023-06-05T11:35:01;4.07;;;2.55;;
79143;SDS011;68551;47.484;19.092;2023-06-05T11:38:10;4.70;;;2.53;;
79143;SDS011;68551;47.484;19.092;2023-06-05T11:41:18;5.15;;;2.42;;
79143;SDS011;68551;47.484;19.092;2023-06-05T11:44:33;3.38;;;2.42;;
79143;SDS011;68551;47.484;19.092;2023-06-05T11:47:39;3.15;;;2.08;;
79143;SDS011;68551;47.484;19.092;2023-06-05T11:54:04;4.80;;;2.88;;
79143;SDS011;68551;47.484;19.092;2023-06-05T11:57:19;3.75;;;2.70;;
79143;SDS011;68551;47.484;19.092;2023-06-05T12:00:50;5.43;;;2.70;;
79143;SDS011;68551;47.484;19.092;2023-06-05T12:04:06;7.15;;;2.97;;
79143;SDS011;68551;47.484;19.092;2023-06-05T12:07:10;4.50;;;2.75;;
79143;SDS011;68551;47.484;19.092;2023-06-05T12:10:16;3.60;;;2.47;;
79143;SDS011;68551;47.484;19.092;2023-06-05T12:13:21;4.10;;;2.72;;
79143;SDS011;68551;47.484;19.092;2023-06-05T12:19:37;3.03;;;2.50;;
79143;SDS011;68551;47.484;19.092;2023-06-05T12:22:46;3.80;;;2.38;;
79143;SDS011;68551;47.484;19.092;2023-06-05T12:25:59;5.60;;;2.85;;
79143;SDS011;68551;47.484;19.092;2023-06-05T12:29:05;4.55;;;3.10;;
79143;SDS011;68551;47.484;19.092;2023-06-05T12:32:20;8.82;;;2.40;;
79143;SDS011;68551;47.484;19.092;2023-06-05T12:35:25;4.07;;;2.60;;
79143;SDS011;68551;47.484;19.092;2023-06-05T12:38:37;4.82;;;2.75;;
79143;SDS011;68551;47.484;19.092;2023-06-05T12:41:40;4.45;;;2.83;;
79143;SDS011;68551;47.484;19.092;2023-06-05T12:44:49;3.47;;;2.70;;
79143;SDS011;68551;47.484;19.092;2023-06-05T12:47:52;3.17;;;2.35;;
79143;SDS011;68551;47.484;19.092;2023-06-05T12:50:57;4.55;;;2.60;;
79143;SDS011;68551;47.484;19.092;2023-06-05T12:53:59;5.15;;;2.50;;
79143;SDS011;68551;47.484;19.092;2023-06-05T12:57:02;4.05;;;2.72;;
79143;SDS011;68551;47.484;19.092;2023-06-05T13:00:05;4.25;;;2.78;;
79143;SDS011;68551;47.484;19.092;2023-06-05T13:03:20;6.22;;;2.80;;
79143;SDS011;68551;47.484;19.092;2023-06-05T13:06:23;4.53;;;2.63;;
79143;SDS011;68551;47.484;19.092;2023-06-05T13:09:25;5.28;;;2.60;;
79143;SDS011;68551;47.484;19.092;2023-06-05T13:12:27;4.03;;;2.67;;
79143;SDS011;68551;47.484;19.092;2023-06-05T13:15:30;4.65;;;2.38;;
79143;SDS011;68551;47.484;19.092;2023-06-05T13:18:33;3.47;;;2.50;;
79143;SDS011;68551;47.484;19.092;2023-06-05T13:21:35;4.38;;;2.55;;
79143;SDS011;68551;47.484;19.092;2023-06-05T13:24:40;3.80;;;2.33;;
79143;SDS011;68551;47.484;19.092;2023-06-05T13:27:42;3.03;;;2.15;;
79143;SDS011;68551;47.484;19.092;2023-06-05T13:30:45;4.53;;;2.42;;
79143;SDS011;68551;47.484;19.092;2023-06-05T13:33:48;3.25;;;2.35;;
79143;SDS011;68551;47.484;19.092;2023-06-05T13:36:56;3.95;;;2.70;;
79143;SDS011;68551;47.484;19.092;2023-06-05T13:40:07;3.50;;;2.33;;
79143;SDS011;68551;47.484;19.092;2023-06-05T13:43:14;4.55;;;2.60;;
79143;SDS011;68551;47.484;19.092;2023-06-05T13:46:17;3.70;;;2.50;;
79143;SDS011;68551;47.484;19.092;2023-06-05T13:49:23;3.55;;;2.53;;
79143;SDS011;68551;47.484;19.092;2023-06-05T13:52:30;3.35;;;2.42;;
79143;SDS011;68551;47.484;19.092;2023-06-05T13:55:33;3.38;;;2.58;;
79143;SDS011;68551;47.484;19.092;2023-06-05T13:58:40;3.22;;;2.30;;
79143;SDS011;68551;47.484;19.092;2023-06-05T14:01:43;3.47;;;2.50;;
79143;SDS011;68551;47.484;19.092;2023-06-05T14:04:45;4.63;;;2.65;;
79143;SDS011;68551;47.484;19.092;2023-06-05T14:10:56;4.20;;;2.53;;
79143;SDS011;68551;47.484;19.092;2023-06-05T14:13:59;4.80;;;2.70;;
79143;SDS011;68551;47.484;19.092;2023-06-05T14:17:01;3.53;;;2.50;;
79143;SDS011;68551;47.484;19.092;2023-06-05T14:20:06;3.55;;;2.50;;
79143;SDS011;68551;47.484;19.092;2023-06-05T14:23:14;4.82;;;2.47;;
79143;SDS011;68551;47.484;19.092;2023-06-05T14:26:19;3.75;;;2.50;;
79143;SDS011;68551;47.484;19.092;2023-06-05T14:29:24;4.38;;;2.35;;
79143;SDS011;68551;47.484;19.092;2023-06-05T14:32:29;3.95;;;2.50;;
79143;SDS011;68551;47.484;19.092;2023-06-05T14:35:33;4.78;;;2.55;;
79143;SDS011;68551;47.484;19.092;2023-06-05T14:38:38;4.45;;;2.78;;
79143;SDS011;68551;47.484;19.092;2023-06-05T14:41:41;6.05;;;2.72;;
79143;SDS011;68551;47.484;19.092;2023-06-05T14:44:49;4.93;;;2.67;;
79143;SDS011;68551;47.484;19.092;2023-06-05T14:47:51;3.53;;;2.25;;
79143;SDS011;68551;47.484;19.092;2023-06-05T14:50:58;4.43;;;2.55;;
79143;SDS011;68551;47.484;19.092;2023-06-05T14:54:01;4.35;;;2.13;;
79143;SDS011;68551;47.484;19.092;2023-06-05T14:57:06;3.22;;;2.38;;
79143;SDS011;68551;47.484;19.092;2023-06-05T15:00:09;3.40;;;2.80;;
79143;SDS011;68551;47.484;19.092;2023-06-05T15:03:14;2.72;;;2.20;;
79143;SDS011;68551;47.484;19.092;2023-06-05T15:06:16;3.90;;;2.33;;
79143;SDS011;68551;47.484;19.092;2023-06-05T15:09:25;3.67;;;2.67;;
79143;SDS011;68551;47.484;19.092;2023-06-05T15:12:29;3.97;;;2.47;;
79143;SDS011;68551;47.484;19.092;2023-06-05T15:15:32;4.78;;;2.65;;
79143;SDS011;68551;47.484;19.092;2023-06-05T15:18:37;3.50;;;2.40;;
79143;SDS011;68551;47.484;19.092;2023-06-05T15:21:47;3.40;;;2.33;;
79143;SDS011;68551;47.484;19.092;2023-06-05T15:24:52;2.60;;;1.95;;
79143;SDS011;68551;47.484;19.092;2023-06-05T15:27:54;3.00;;;2.42;;
79143;SDS011;68551;47.484;19.092;2023-06-05T15:30:59;4.03;;;2.50;;
79143;SDS011;68551;47.484;19.092;2023-06-05T15:34:02;3.80;;;2.80;;
79143;SDS011;68551;47.484;19.092;2023-06-05T15:37:04;4.47;;;2.85;;
79143;SDS011;68551;47.484;19.092;2023-06-05T15:40:09;3.78;;;2.50;;
79143;SDS011;68551;47.484;19.092;2023-06-05T15:43:12;3.28;;;2.40;;
79143;SDS011;68551;47.484;19.092;2023-06-05T15:46:20;5.45;;;2.63;;
79143;SDS011;68551;47.484;19.092;2023-06-05T15:49:25;4.15;;;2.85;;
79143;SDS011;68551;47.484;19.092;2023-06-05T15:52:27;4.22;;;2.63;;
79143;SDS011;68551;47.484;19.092;2023-06-05T15:55:33;5.20;;;2.65;;
79143;SDS011;68551;47.484;19.092;2023-06-05T15:58:42;4.57;;;2.90;;
79143;SDS011;68551;47.484;19.092;2023-06-05T16:01:44;4.85;;;2.53;;
79143;SDS011;68551;47.484;19.092;2023-06-05T16:04:48;5.30;;;2.90;;
79143;SDS011;68551;47.484;19.092;2023-06-05T16:07:50;3.78;;;2.83;;
79143;SDS011;68551;47.484;19.092;2023-06-05T16:10:55;3.78;;;2.58;;
79143;SDS011;68551;47.484;19.092;2023-06-05T16:14:07;4.10;;;2.90;;
79143;SDS011;68551;47.484;19.092;2023-06-05T16:17:11;3.88;;;2.53;;
79143;SDS011;68551;47.484;19.092;2023-06-05T16:20:13;4.90;;;3.08;;
79143;SDS011;68551;47.484;19.092;2023-06-05T16:23:15;3.88;;;2.42;;
79143;SDS011;68551;47.484;19.092;2023-06-05T16:26:20;4.53;;;2.90;;
79143;SDS011;68551;47.484;19.092;2023-06-05T16:29:23;4.15;;;2.75;;
79143;SDS011;68551;47.484;19.092;2023-06-05T16:32:26;4.18;;;2.78;;
79143;SDS011;68551;47.484;19.092;2023-06-05T16:35:31;3.90;;;2.67;;
79143;SDS011;68551;47.484;19.092;2023-06-05T16:38:35;3.67;;;2.42;;
79143;SDS011;68551;47.484;19.092;2023-06-05T16:41:38;4.07;;;2.75;;
79143;SDS011;68551;47.484;19.092;2023-06-05T16:44:43;3.97;;;2.88;;
79143;SDS011;68551;47.484;19.092;2023-06-05T16:47:47;4.30;;;2.83;;
79143;SDS011;68551;47.484;19.092;2023-06-05T16:53:54;4.30;;;2.78;;
79143;SDS011;68551;47.484;19.092;2023-06-05T16:57:00;5.10;;;3.35;;
79143;SDS011;68551;47.484;19.092;2023-06-05T17:00:06;4.85;;;2.90;;
79143;SDS011;68551;47.484;19.092;2023-06-05T17:03:12;4.03;;;2.92;;
79143;SDS011;68551;47.484;19.092;2023-06-05T17:06:18;5.78;;;2.97;;
79143;SDS011;68551;47.484;19.092;2023-06-05T17:09:25;3.63;;;2.65;;
79143;SDS011;68551;47.484;19.092;2023-06-05T17:12:29;4.53;;;3.00;;
79143;SDS011;68551;47.484;19.092;2023-06-05T17:15:32;5.53;;;2.55;;
79143;SDS011;68551;47.484;19.092;2023-06-05T17:18:39;4.13;;;2.40;;
79143;SDS011;68551;47.484;19.092;2023-06-05T17:21:41;4.03;;;3.03;;
79143;SDS011;68551;47.484;19.092;2023-06-05T17:24:46;5.38;;;3.28;;
79143;SDS011;68551;47.484;19.092;2023-06-05T17:27:48;5.05;;;3.28;;
79143;SDS011;68551;47.484;19.092;2023-06-05T17:30:53;6.57;;;3.10;;
79143;SDS011;68551;47.484;19.092;2023-06-05T17:34:00;4.82;;;3.90;;
79143;SDS011;68551;47.484;19.092;2023-06-05T17:37:08;6.88;;;4.28;;
79143;SDS011;68551;47.484;19.092;2023-06-05T17:40:10;9.98;;;4.97;;
79143;SDS011;68551;47.484;19.092;2023-06-05T17:43:18;7.00;;;4.43;;
79143;SDS011;68551;47.484;19.092;2023-06-05T17:46:25;5.78;;;3.72;;
79143;SDS011;68551;47.484;19.092;2023-06-05T17:52:32;5.65;;;3.00;;
79143;SDS011;68551;47.484;19.092;2023-06-05T17:55:35;5.57;;;3.13;;
79143;SDS011;68551;47.484;19.092;2023-06-05T17:58:37;6.18;;;3.50;;
79143;SDS011;68551;47.484;19.092;2023-06-05T18:01:39;7.68;;;3.88;;
79143;SDS011;68551;47.484;19.092;2023-06-05T18:04:47;6.03;;;4.90;;
79143;SDS011;68551;47.484;19.092;2023-06-05T18:07:52;6.32;;;4.60;;
79143;SDS011;68551;47.484;19.092;2023-06-05T18:10:57;7.10;;;4.65;;
79143;SDS011;68551;47.484;19.092;2023-06-05T18:14:04;7.10;;;4.10;;
79143;SDS011;68551;47.484;19.092;2023-06-05T18:17:09;7.72;;;4.50;;
79143;SDS011;68551;47.484;19.092;2023-06-05T18:20:18;7.90;;;4.80;;
79143;SDS011;68551;47.484;19.092;2023-06-05T18:23:23;8.13;;;4.82;;
79143;SDS011;68551;47.484;19.092;2023-06-05T18:26:28;6.93;;;4.70;;
79143;SDS011;68551;47.484;19.092;2023-06-05T18:29:33;6.50;;;5.05;;
79143;SDS011;68551;47.484;19.092;2023-06-05T18:32:35;9.13;;;5.88;;
79143;SDS011;68551;47.484;19.092;2023-06-05T18:35:37;8.38;;;5.57;;
79143;SDS011;68551;47.484;19.092;2023-06-05T18:38:43;8.40;;;5.47;;
79143;SDS011;68551;47.484;19.092;2023-06-05T18:41:51;7.72;;;5.13;;
79143;SDS011;68551;47.484;19.092;2023-06-05T18:44:53;9.30;;;5.88;;
79143;SDS011;68551;47.484;19.092;2023-06-05T18:47:59;5.90;;;4.60;;
79143;SDS011;68551;47.484;19.092;2023-06-05T18:51:03;5.25;;;3.20;;
79143;SDS011;68551;47.484;19.092;2023-06-05T18:54:06;5.30;;;3.70;;
79143;SDS011;68551;47.484;19.092;2023-06-05T18:57:08;6.75;;;4.18;;
79143;SDS011;68551;47.484;19.092;2023-06-05T19:00:11;6.50;;;2.90;;
79143;SDS011;68551;47.484;19.092;2023-06-05T19:03:13;6.88;;;3.00;;
79143;SDS011;68551;47.484;19.092;2023-06-05T19:06:20;5.32;;;3.35;;
79143;SDS011;68551;47.484;19.092;2023-06-05T19:09:29;3.88;;;2.80;;
79143;SDS011;68551;47.484;19.092;2023-06-05T19:12:32;6.90;;;2.83;;
79143;SDS011;68551;47.484;19.092;2023-06-05T19:15:35;6.05;;;2.88;;
79143;SDS011;68551;47.484;19.092;2023-06-05T19:18:40;5.60;;;3.30;;
79143;SDS011;68551;47.484;19.092;2023-06-05T19:21:47;5.47;;;3.25;;
79143;SDS011;68551;47.484;19.092;2023-06-05T19:24:50;7.53;;;3.85;;